sensor_id;sensor_type;location;lat;lon;timestamp;pressure;altitude;pressure_sealevel;temperature;humidity
2000;BME280;1001;48.87406500;9.59633600;2023-02-21T00:01:29;95536.59;;;6.93;75.43
2000;BME280;1001;48.87406500;9.59633600;2023-02-21T00:04:13;95530.97;;;6.96;75.63
2000;BME280;1001;48.87406500;9.59633600;2023-02-21T00:06:57;95533.41;;;6.98;75.78
2000;BME280;1001;48.87406500;9.59633600;2023-02-21T00:09:41;95526.78;;;6.95;75.81
2000;BME280;1001;48.87406500;9.59633600;2023-02-21T00:12:24;95522.94;;;6.91;76.33
2000;BME280;1001;48.87406500;9.59633600;2023-02-21T00:15:10;95521.75;;;6.87;76.30
2000;BME280;1001;48.87406500;9.59633600;2023-02-21T00:17:54;95530.16;;;6.89;76.61
2000;BME280;1001;48.87406500;9.59633600;2023-02-21T00:20:38;95526.78;;;6.95;76.43
2000;BME280;1001;48.87406500;9.59633600;2023-02-21T00:23:22;95513.56;;;6.83;77.12
2000;BME280;1001;48.87406500;9.59633600;2023-02-21T00:26:06;95518.34;;;6.86;77.14
2000;BME280;1001;48.87406500;9.59633600;2023-02-21T00:28:50;95521.16;;;6.85;77.07
2000;BME280;1001;48.87406500;9.59633600;2023-02-21T00:31:35;95518.34;;;6.86;77.83
2000;BME280;1001;48.87406500;9.59633600;2023-02-21T00:34:19;95516.16;;;6.90;77.53
2000;BME280;1001;48.87406500;9.59633600;2023-02-21T00:37:02;95516.56;;;6.94;77.15
2000;BME280;1001;48.87406500;9.59633600;2023-02-21T00:39:47;95520.56;;;6.96;77.16
2000;BME280;1001;48.87406500;9.59633600;2023-02-21T00:42:30;95508.97;;;6.99;77.25
2000;BME280;1001;48.87406500;9.59633600;2023-02-21T00:45:15;95509.56;;;6.94;77.01
2000;BME280;1001;48.87406500;9.59633600;2023-02-21T00:48:00;95506.38;;;6.92;77.07
2000;BME280;1001;48.87406500;9.59633600;2023-02-21T00:50:44;95504.16;;;6.89;76.83
2000;BME280;1001;48.87406500;9.59633600;2023-02-21T00:53:28;95508.38;;;6.90;76.83
2000;BME280;1001;48.87406500;9.59633600;2023-02-21T00:56:12;95513.56;;;6.97;76.10
2000;BME280;1001;48.87406500;9.59633600;2023-02-21T00:58:56;95505.78;;;6.97;75.87
2000;BME280;1001;48.87406500;9.59633600;2023-02-21T01:01:40;95500.19;;;7.00;75.61
2000;BME280;1001;48.87406500;9.59633600;2023-02-21T01:04:25;95505.41;;;7.00;75.59
2000;BME280;1001;48.87406500;9.59633600;2023-02-21T01:07:09;95506.38;;;6.99;75.37
2000;BME280;1001;48.87406500;9.59633600;2023-02-21T01:09:53;95504.38;;;6.94;75.58
2000;BME280;1001;48.87406500;9.59633600;2023-02-21T01:12:37;95500.34;;;6.85;75.64
2000;BME280;1001;48.87406500;9.59633600;2023-02-21T01:15:21;95506.97;;;6.88;75.34
2000;BME280;1001;48.87406500;9.59633600;2023-02-21T01:18:05;95506.16;;;6.87;75.05
2000;BME280;1001;48.87406500;9.59633600;2023-02-21T01:20:50;95494.56;;;6.83;75.11
2000;BME280;1001;48.87406500;9.59633600;2023-02-21T01:23:34;95497.91;;;6.77;75.27
2000;BME280;1001;48.87406500;9.59633600;2023-02-21T01:26:18;95497.91;;;6.77;74.93
2000;BME280;1001;48.87406500;9.59633600;2023-02-21T01:29:02;95496.94;;;6.78;74.63
2000;BME280;1001;48.87406500;9.59633600;2023-02-21T01:31:47;95484.75;;;6.78;74.50
2000;BME280;1001;48.87406500;9.59633600;2023-02-21T01:34:31;95492.34;;;6.80;74.59
2000;BME280;1001;48.87406500;9.59633600;2023-02-21T01:37:17;95481.94;;;6.73;75.37
2000;BME280;1001;48.87406500;9.59633600;2023-02-21T01:40:01;95489.13;;;6.71;75.71
2000;BME280;1001;48.87406500;9.59633600;2023-02-21T01:42:44;95482.09;;;6.65;75.61
2000;BME280;1001;48.87406500;9.59633600;2023-02-21T01:45:42;95481.31;;;6.71;75.83
2000;BME280;1001;48.87406500;9.59633600;2023-02-21T01:48:29;95482.50;;;6.62;75.69
2000;BME280;1001;48.87406500;9.59633600;2023-02-21T01:51:17;95481.28;;;6.58;75.84
2000;BME280;1001;48.87406500;9.59633600;2023-02-21T01:54:04;95481.69;;;6.62;75.69
2000;BME280;1001;48.87406500;9.59633600;2023-02-21T01:56:48;95483.09;;;6.64;75.58
2000;BME280;1001;48.87406500;9.59633600;2023-02-21T01:59:32;95485.72;;;6.71;75.75
2000;BME280;1001;48.87406500;9.59633600;2023-02-21T02:02:19;95490.31;;;6.69;75.18
2000;BME280;1001;48.87406500;9.59633600;2023-02-21T02:05:06;95480.31;;;6.72;75.12
2000;BME280;1001;48.87406500;9.59633600;2023-02-21T02:07:51;95478.94;;;6.76;74.91
2000;BME280;1001;48.87406500;9.59633600;2023-02-21T02:10:37;95476.53;;;6.81;74.30
2000;BME280;1001;48.87406500;9.59633600;2023-02-21T02:13:56;95481.94;;;6.86;74.41
2000;BME280;1001;48.87406500;9.59633600;2023-02-21T02:16:34;95468.19;;;6.86;74.76
2000;BME280;1001;48.87406500;9.59633600;2023-02-21T02:19:38;95469.75;;;6.87;74.64
2000;BME280;1001;48.87406500;9.59633600;2023-02-21T02:25:16;95464.19;;;6.90;73.98
2000;BME280;1001;48.87406500;9.59633600;2023-02-21T02:28:25;95465.97;;;6.90;73.96
2000;BME280;1001;48.87406500;9.59633600;2023-02-21T02:31:24;95466.97;;;6.88;74.69
2000;BME280;1001;48.87406500;9.59633600;2023-02-21T02:34:22;95469.38;;;6.97;74.26
2000;BME280;1001;48.87406500;9.59633600;2023-02-21T02:36:55;95469.59;;;6.95;74.26
2000;BME280;1001;48.87406500;9.59633600;2023-02-21T02:39:31;95469.19;;;6.98;74.31
2000;BME280;1001;48.87406500;9.59633600;2023-02-21T02:42:09;95463.00;;;6.99;74.56
2000;BME280;1001;48.87406500;9.59633600;2023-02-21T02:44:39;95466.00;;;7.09;74.44
2000;BME280;1001;48.87406500;9.59633600;2023-02-21T02:47:07;95463.22;;;7.11;74.92
2000;BME280;1001;48.87406500;9.59633600;2023-02-21T02:49:40;95459.81;;;7.10;75.10
2000;BME280;1001;48.87406500;9.59633600;2023-02-21T02:52:08;95465.22;;;7.09;75.00
2000;BME280;1001;48.87406500;9.59633600;2023-02-21T02:54:35;95464.63;;;7.07;75.10
2000;BME280;1001;48.87406500;9.59633600;2023-02-21T02:57:04;95452.41;;;7.07;74.86
2000;BME280;1001;48.87406500;9.59633600;2023-02-21T02:59:35;95455.63;;;7.09;74.80
2000;BME280;1001;48.87406500;9.59633600;2023-02-21T03:02:15;95457.78;;;7.06;75.18
2000;BME280;1001;48.87406500;9.59633600;2023-02-21T03:05:09;95448.00;;;7.01;75.80
2000;BME280;1001;48.87406500;9.59633600;2023-02-21T03:07:49;95452.59;;;6.99;75.80
2000;BME280;1001;48.87406500;9.59633600;2023-02-21T03:10:22;95454.78;;;6.96;75.77
2000;BME280;1001;48.87406500;9.59633600;2023-02-21T03:13:01;95451.56;;;6.94;75.72
2000;BME280;1001;48.87406500;9.59633600;2023-02-21T03:15:32;95452.16;;;6.89;75.99
2000;BME280;1001;48.87406500;9.59633600;2023-02-21T03:18:06;95453.78;;;6.90;75.73
2000;BME280;1001;48.87406500;9.59633600;2023-02-21T03:20:37;95451.56;;;6.87;75.58
2000;BME280;1001;48.87406500;9.59633600;2023-02-21T03:23:05;95452.00;;;6.91;75.53
2000;BME280;1001;48.87406500;9.59633600;2023-02-21T03:25:33;95446.59;;;6.92;75.52
2000;BME280;1001;48.87406500;9.59633600;2023-02-21T03:28:01;95451.19;;;6.97;75.07
2000;BME280;1001;48.87406500;9.59633600;2023-02-21T03:30:28;95450.16;;;6.91;75.40
2000;BME280;1001;48.87406500;9.59633600;2023-02-21T03:32:56;95444.59;;;6.88;75.31
2000;BME280;1001;48.87406500;9.59633600;2023-02-21T03:35:23;95449.78;;;6.81;75.68
2000;BME280;1001;48.87406500;9.59633600;2023-02-21T03:37:51;95443.16;;;6.85;75.59
2000;BME280;1001;48.87406500;9.59633600;2023-02-21T03:40:21;95442.19;;;6.86;75.50
2000;BME280;1001;48.87406500;9.59633600;2023-02-21T03:42:48;95446.59;;;6.92;75.08
2000;BME280;1001;48.87406500;9.59633600;2023-02-21T03:45:15;95446.59;;;6.99;74.55
2000;BME280;1001;48.87406500;9.59633600;2023-02-21T03:47:42;95451.78;;;6.99;74.35
2000;BME280;1001;48.87406500;9.59633600;2023-02-21T03:50:09;95442.78;;;6.95;74.30
2000;BME280;1001;48.87406500;9.59633600;2023-02-21T03:52:36;95444.38;;;6.96;73.74
2000;BME280;1001;48.87406500;9.59633600;2023-02-21T03:55:05;95444.78;;;6.99;73.21
2000;BME280;1001;48.87406500;9.59633600;2023-02-21T03:57:32;95442.00;;;7.01;73.37
2000;BME280;1001;48.87406500;9.59633600;2023-02-21T03:59:59;95441.00;;;7.02;73.04
2000;BME280;1001;48.87406500;9.59633600;2023-02-21T04:02:26;95441.59;;;6.97;73.79
2000;BME280;1001;48.87406500;9.59633600;2023-02-21T04:04:53;95444.59;;;6.94;74.30
2000;BME280;1001;48.87406500;9.59633600;2023-02-21T04:07:20;95433.59;;;6.92;74.28
2000;BME280;1001;48.87406500;9.59633600;2023-02-21T04:09:47;95451.78;;;6.99;74.36
2000;BME280;1001;48.87406500;9.59633600;2023-02-21T04:12:15;95447.19;;;6.94;74.36
2000;BME280;1001;48.87406500;9.59633600;2023-02-21T04:14:42;95441.78;;;6.89;75.06
2000;BME280;1001;48.87406500;9.59633600;2023-02-21T04:17:08;95448.97;;;6.94;74.81
2000;BME280;1001;48.87406500;9.59633600;2023-02-21T04:19:35;95446.97;;;6.96;75.03
2000;BME280;1001;48.87406500;9.59633600;2023-02-21T04:22:02;95450.78;;;6.93;75.25
2000;BME280;1001;48.87406500;9.59633600;2023-02-21T04:24:28;95447.78;;;6.90;75.12
2000;BME280;1001;48.87406500;9.59633600;2023-02-21T04:26:55;95442.38;;;6.91;75.04
2000;BME280;1001;48.87406500;9.59633600;2023-02-21T04:29:24;95442.56;;;6.90;75.28
2000;BME280;1001;48.87406500;9.59633600;2023-02-21T04:31:50;95434.19;;;6.94;75.29
2000;BME280;1001;48.87406500;9.59633600;2023-02-21T04:34:18;95431.38;;;6.89;75.35
2000;BME280;1001;48.87406500;9.59633600;2023-02-21T04:36:44;95438.56;;;6.80;75.83
2000;BME280;1001;48.87406500;9.59633600;2023-02-21T04:39:11;95437.38;;;6.83;75.84
2000;BME280;1001;48.87406500;9.59633600;2023-02-21T04:41:38;95435.38;;;6.78;75.84
2000;BME280;1001;48.87406500;9.59633600;2023-02-21T04:44:04;95432.75;;;6.72;76.11
2000;BME280;1001;48.87406500;9.59633600;2023-02-21T04:46:33;95425.94;;;6.71;75.96
2000;BME280;1001;48.87406500;9.59633600;2023-02-21T04:48:59;95426.94;;;6.70;76.15
2000;BME280;1001;48.87406500;9.59633600;2023-02-21T04:51:26;95431.75;;;6.73;75.50
2000;BME280;1001;48.87406500;9.59633600;2023-02-21T04:53:53;95430.78;;;6.80;74.69
2000;BME280;1001;48.87406500;9.59633600;2023-02-21T04:56:22;95426.78;;;6.84;74.03
2000;BME280;1001;48.87406500;9.59633600;2023-02-21T04:58:49;95433.38;;;6.94;73.73
2000;BME280;1001;48.87406500;9.59633600;2023-02-21T05:01:18;95436.19;;;6.99;73.80
2000;BME280;1001;48.87406500;9.59633600;2023-02-21T05:03:46;95427.78;;;6.97;73.70
2000;BME280;1001;48.87406500;9.59633600;2023-02-21T05:06:16;95429.41;;;6.98;73.97
2000;BME280;1001;48.87406500;9.59633600;2023-02-21T05:08:43;95425.78;;;6.92;75.23
2000;BME280;1001;48.87406500;9.59633600;2023-02-21T05:11:10;95423.41;;;6.91;75.39
2000;BME280;1001;48.87406500;9.59633600;2023-02-21T05:13:36;95421.78;;;6.90;74.79
2000;BME280;1001;48.87406500;9.59633600;2023-02-21T05:16:03;95420.97;;;6.89;74.31
2000;BME280;1001;48.87406500;9.59633600;2023-02-21T05:18:30;95424.16;;;6.84;73.20
2000;BME280;1001;48.87406500;9.59633600;2023-02-21T05:21:00;95423.97;;;6.79;72.87
2000;BME280;1001;48.87406500;9.59633600;2023-02-21T05:23:26;95412.78;;;6.79;72.92
2000;BME280;1001;48.87406500;9.59633600;2023-02-21T05:25:59;95416.16;;;6.73;72.89
2000;BME280;1001;48.87406500;9.59633600;2023-02-21T05:28:26;95417.56;;;6.69;73.01
2000;BME280;1001;48.87406500;9.59633600;2023-02-21T05:30:53;95413.34;;;6.68;73.46
2000;BME280;1001;48.87406500;9.59633600;2023-02-21T05:33:19;95420.97;;;6.69;73.08
2000;BME280;1001;48.87406500;9.59633600;2023-02-21T05:35:46;95412.16;;;6.64;73.37
2000;BME280;1001;48.87406500;9.59633600;2023-02-21T05:38:14;95413.94;;;6.63;74.24
2000;BME280;1001;48.87406500;9.59633600;2023-02-21T05:40:40;95402.53;;;6.58;75.02
2000;BME280;1001;48.87406500;9.59633600;2023-02-21T05:43:07;95407.31;;;6.48;76.61
2000;BME280;1001;48.87406500;9.59633600;2023-02-21T05:45:34;95410.09;;;6.46;76.88
2000;BME280;1001;48.87406500;9.59633600;2023-02-21T05:48:01;95409.91;;;6.54;76.56
2000;BME280;1001;48.87406500;9.59633600;2023-02-21T05:50:28;95412.09;;;6.51;76.21
2000;BME280;1001;48.87406500;9.59633600;2023-02-21T05:52:55;95407.91;;;6.50;76.47
2000;BME280;1001;48.87406500;9.59633600;2023-02-21T05:55:23;95415.31;;;6.53;76.19
2000;BME280;1001;48.87406500;9.59633600;2023-02-21T05:57:50;95419.50;;;6.47;76.32
2000;BME280;1001;48.87406500;9.59633600;2023-02-21T06:00:19;95416.28;;;6.45;75.87
2000;BME280;1001;48.87406500;9.59633600;2023-02-21T06:02:48;95412.44;;;6.28;75.78
2000;BME280;1001;48.87406500;9.59633600;2023-02-21T06:05:15;95407.81;;;6.24;75.91
2000;BME280;1001;48.87406500;9.59633600;2023-02-21T06:07:42;95424.00;;;6.19;75.86
2000;BME280;1001;48.87406500;9.59633600;2023-02-21T06:10:08;95415.25;;;6.27;74.85
2000;BME280;1001;48.87406500;9.59633600;2023-02-21T06:12:36;95431.44;;;6.42;75.07
2000;BME280;1001;48.87406500;9.59633600;2023-02-21T06:15:03;95428.72;;;6.56;74.99
2000;BME280;1001;48.87406500;9.59633600;2023-02-21T06:17:31;95424.91;;;6.59;74.85
2000;BME280;1001;48.87406500;9.59633600;2023-02-21T06:19:58;95425.53;;;6.61;75.18
2000;BME280;1001;48.87406500;9.59633600;2023-02-21T06:22:25;95428.50;;;6.58;75.59
2000;BME280;1001;48.87406500;9.59633600;2023-02-21T06:24:51;95423.13;;;6.66;75.81
2000;BME280;1001;48.87406500;9.59633600;2023-02-21T06:27:18;95418.53;;;6.68;75.68
2000;BME280;1001;48.87406500;9.59633600;2023-02-21T06:29:46;95420.75;;;6.64;75.99
2000;BME280;1001;48.87406500;9.59633600;2023-02-21T06:32:12;95420.53;;;6.66;76.40
2000;BME280;1001;48.87406500;9.59633600;2023-02-21T06:34:39;95421.94;;;6.62;76.51
2000;BME280;1001;48.87406500;9.59633600;2023-02-21T06:37:05;95417.72;;;6.67;75.96
2000;BME280;1001;48.87406500;9.59633600;2023-02-21T06:39:32;95422.53;;;6.70;75.96
2000;BME280;1001;48.87406500;9.59633600;2023-02-21T06:41:58;95421.16;;;6.74;76.25
2000;BME280;1001;48.87406500;9.59633600;2023-02-21T06:44:25;95423.94;;;6.73;75.95
2000;BME280;1001;48.87406500;9.59633600;2023-02-21T06:46:53;95417.78;;;6.80;76.30
2000;BME280;1001;48.87406500;9.59633600;2023-02-21T06:49:20;95421.34;;;6.79;76.33
2000;BME280;1001;48.87406500;9.59633600;2023-02-21T06:51:46;95421.34;;;6.79;76.41
2000;BME280;1001;48.87406500;9.59633600;2023-02-21T06:54:13;95419.78;;;6.78;76.01
2000;BME280;1001;48.87406500;9.59633600;2023-02-21T06:56:41;95413.56;;;6.79;76.45
2000;BME280;1001;48.87406500;9.59633600;2023-02-21T06:59:08;95419.78;;;6.85;76.53
2000;BME280;1001;48.87406500;9.59633600;2023-02-21T07:01:35;95414.59;;;6.92;77.03
2000;BME280;1001;48.87406500;9.59633600;2023-02-21T07:04:03;95424.97;;;6.98;77.25
2000;BME280;1001;48.87406500;9.59633600;2023-02-21T07:06:30;95421.00;;;7.02;77.34
2000;BME280;1001;48.87406500;9.59633600;2023-02-21T07:08:57;95425.41;;;7.08;77.07
2000;BME280;1001;48.87406500;9.59633600;2023-02-21T07:11:24;95427.00;;;7.09;77.25
2000;BME280;1001;48.87406500;9.59633600;2023-02-21T07:13:51;95432.22;;;7.16;76.78
2000;BME280;1001;48.87406500;9.59633600;2023-02-21T07:16:18;95428.41;;;7.12;77.37
2000;BME280;1001;48.87406500;9.59633600;2023-02-21T07:18:45;95432.44;;;7.14;77.00
2000;BME280;1001;48.87406500;9.59633600;2023-02-21T07:21:14;95432.81;;;7.18;76.58
2000;BME280;1001;48.87406500;9.59633600;2023-02-21T07:23:41;95435.63;;;7.16;76.96
2000;BME280;1001;48.87406500;9.59633600;2023-02-21T07:26:08;95434.22;;;7.20;76.70
2000;BME280;1001;48.87406500;9.59633600;2023-02-21T07:28:34;95435.19;;;7.19;76.97
2000;BME280;1001;48.87406500;9.59633600;2023-02-21T07:31:01;95435.44;;;7.31;77.06
2000;BME280;1001;48.87406500;9.59633600;2023-02-21T07:33:28;95438.63;;;7.39;76.96
2000;BME280;1001;48.87406500;9.59633600;2023-02-21T07:35:54;95443.81;;;7.52;77.49
2000;BME280;1001;48.87406500;9.59633600;2023-02-21T07:38:24;95447.22;;;7.73;78.00
2000;BME280;1001;48.87406500;9.59633600;2023-02-21T07:40:53;95442.97;;;7.91;77.73
2000;BME280;1001;48.87406500;9.59633600;2023-02-21T07:43:20;95444.72;;;8.10;76.16
2000;BME280;1001;48.87406500;9.59633600;2023-02-21T07:45:47;95442.88;;;8.24;75.69
2000;BME280;1001;48.87406500;9.59633600;2023-02-21T07:48:13;95438.25;;;8.39;75.58
2000;BME280;1001;48.87406500;9.59633600;2023-02-21T07:50:40;95442.22;;;8.48;76.48
2000;BME280;1001;48.87406500;9.59633600;2023-02-21T07:53:07;95443.97;;;8.61;76.01
2000;BME280;1001;48.87406500;9.59633600;2023-02-21T07:55:35;95449.69;;;8.76;76.96
2000;BME280;1001;48.87406500;9.59633600;2023-02-21T07:58:02;95450.63;;;8.88;76.27
2000;BME280;1001;48.87406500;9.59633600;2023-02-21T08:00:29;95446.94;;;9.02;75.51
2000;BME280;1001;48.87406500;9.59633600;2023-02-21T08:02:55;95447.50;;;9.11;76.19
2000;BME280;1001;48.87406500;9.59633600;2023-02-21T08:05:22;95450.44;;;9.21;75.48
2000;BME280;1001;48.87406500;9.59633600;2023-02-21T08:07:49;95451.50;;;9.38;74.93
2000;BME280;1001;48.87406500;9.59633600;2023-02-21T08:10:20;95458.69;;;9.42;74.10
2000;BME280;1001;48.87406500;9.59633600;2023-02-21T08:12:48;95451.56;;;9.56;73.86
2000;BME280;1001;48.87406500;9.59633600;2023-02-21T08:15:16;95460.41;;;9.80;72.90
2000;BME280;1001;48.87406500;9.59633600;2023-02-21T08:17:43;95465.59;;;9.86;72.80
2000;BME280;1001;48.87406500;9.59633600;2023-02-21T08:20:10;95457.69;;;9.93;72.68
2000;BME280;1001;48.87406500;9.59633600;2023-02-21T08:22:36;95461.66;;;9.95;73.04
2000;BME280;1001;48.87406500;9.59633600;2023-02-21T08:25:03;95463.56;;;9.88;71.60
2000;BME280;1001;48.87406500;9.59633600;2023-02-21T08:27:30;95458.75;;;9.85;69.37
2000;BME280;1001;48.87406500;9.59633600;2023-02-21T08:29:58;95463.06;;;9.98;69.83
2000;BME280;1001;48.87406500;9.59633600;2023-02-21T08:32:25;95464.22;;;9.77;69.71
2000;BME280;1001;48.87406500;9.59633600;2023-02-21T08:34:51;95456.88;;;9.92;70.48
2000;BME280;1001;48.87406500;9.59633600;2023-02-21T08:37:18;95458.91;;;9.90;69.90
2000;BME280;1001;48.87406500;9.59633600;2023-02-21T08:39:45;95461.97;;;10.05;69.35
2000;BME280;1001;48.87406500;9.59633600;2023-02-21T08:42:12;95464.63;;;9.99;69.16
2000;BME280;1001;48.87406500;9.59633600;2023-02-21T08:44:42;95461.25;;;9.98;68.81
2000;BME280;1001;48.87406500;9.59633600;2023-02-21T08:47:10;95460.59;;;10.03;68.96
2000;BME280;1001;48.87406500;9.59633600;2023-02-21T08:49:37;95464.16;;;10.08;68.16
2000;BME280;1001;48.87406500;9.59633600;2023-02-21T08:52:05;95463.09;;;10.16;67.75
2000;BME280;1001;48.87406500;9.59633600;2023-02-21T08:54:32;95463.31;;;10.14;66.52
2000;BME280;1001;48.87406500;9.59633600;2023-02-21T08:56:58;95461.88;;;10.18;66.70
2000;BME280;1001;48.87406500;9.59633600;2023-02-21T08:59:25;95464.91;;;10.15;66.61
2000;BME280;1001;48.87406500;9.59633600;2023-02-21T09:01:54;95473.03;;;10.25;66.89
2000;BME280;1001;48.87406500;9.59633600;2023-02-21T09:04:22;95468.47;;;10.39;67.90
2000;BME280;1001;48.87406500;9.59633600;2023-02-21T09:06:50;95462.13;;;10.65;67.04
2000;BME280;1001;48.87406500;9.59633600;2023-02-21T09:09:16;95461.66;;;10.56;64.75
2000;BME280;1001;48.87406500;9.59633600;2023-02-21T09:11:43;95466.44;;;10.59;66.11
2000;BME280;1001;48.87406500;9.59633600;2023-02-21T09:14:12;95459.66;;;10.70;65.37
2000;BME280;1001;48.87406500;9.59633600;2023-02-21T09:16:39;95460.03;;;10.55;64.39
2000;BME280;1001;48.87406500;9.59633600;2023-02-21T09:19:07;95462.66;;;10.73;65.55
2000;BME280;1001;48.87406500;9.59633600;2023-02-21T09:21:35;95468.88;;;10.72;65.24
2000;BME280;1001;48.87406500;9.59633600;2023-02-21T09:24:09;95465.41;;;10.78;63.95
2000;BME280;1001;48.87406500;9.59633600;2023-02-21T09:26:36;95465.72;;;11.00;65.06
2000;BME280;1001;48.87406500;9.59633600;2023-02-21T09:29:03;95460.78;;;10.92;63.46
2000;BME280;1001;48.87406500;9.59633600;2023-02-21T09:31:29;95459.03;;;11.04;65.01
2000;BME280;1001;48.87406500;9.59633600;2023-02-21T09:33:56;95463.50;;;11.27;64.56
2000;BME280;1001;48.87406500;9.59633600;2023-02-21T09:36:22;95470.13;;;11.29;62.99
2000;BME280;1001;48.87406500;9.59633600;2023-02-21T09:38:50;95465.09;;;11.16;62.71
2000;BME280;1001;48.87406500;9.59633600;2023-02-21T09:41:18;95465.44;;;11.20;64.28
2000;BME280;1001;48.87406500;9.59633600;2023-02-21T09:43:46;95465.03;;;11.34;63.87
2000;BME280;1001;48.87406500;9.59633600;2023-02-21T09:46:18;95461.53;;;11.52;63.58
2000;BME280;1001;48.87406500;9.59633600;2023-02-21T09:48:46;95463.38;;;11.63;62.93
2000;BME280;1001;48.87406500;9.59633600;2023-02-21T09:51:14;95466.00;;;11.63;60.98
2000;BME280;1001;48.87406500;9.59633600;2023-02-21T09:53:45;95463.53;;;11.80;61.38
2000;BME280;1001;48.87406500;9.59633600;2023-02-21T09:56:20;95461.19;;;11.60;60.36
2000;BME280;1001;48.87406500;9.59633600;2023-02-21T09:58:52;95465.69;;;11.71;62.90
2000;BME280;1001;48.87406500;9.59633600;2023-02-21T10:01:24;95474.13;;;11.73;59.80
2000;BME280;1001;48.87406500;9.59633600;2023-02-21T10:04:01;95469.69;;;11.85;60.53
2000;BME280;1001;48.87406500;9.59633600;2023-02-21T10:06:38;95474.81;;;11.80;57.60
2000;BME280;1001;48.87406500;9.59633600;2023-02-21T10:09:17;95468.31;;;11.94;57.82
2000;BME280;1001;48.87406500;9.59633600;2023-02-21T10:11:56;95475.50;;;11.99;59.45
2000;BME280;1001;48.87406500;9.59633600;2023-02-21T10:14:29;95475.25;;;12.12;58.65
2000;BME280;1001;48.87406500;9.59633600;2023-02-21T10:17:04;95478.38;;;12.09;59.12
2000;BME280;1001;48.87406500;9.59633600;2023-02-21T10:19:39;95478.91;;;12.34;58.54
2000;BME280;1001;48.87406500;9.59633600;2023-02-21T10:22:13;95479.25;;;12.26;57.43
2000;BME280;1001;48.87406500;9.59633600;2023-02-21T10:24:40;95484.97;;;12.23;56.90
2000;BME280;1001;48.87406500;9.59633600;2023-02-21T10:27:16;95482.00;;;12.19;56.38
2000;BME280;1001;48.87406500;9.59633600;2023-02-21T10:29:47;95477.09;;;12.35;57.09
2000;BME280;1001;48.87406500;9.59633600;2023-02-21T10:32:16;95472.63;;;12.35;57.38
2000;BME280;1001;48.87406500;9.59633600;2023-02-21T10:34:44;95477.06;;;12.46;55.81
2000;BME280;1001;48.87406500;9.59633600;2023-02-21T10:37:32;95468.81;;;12.54;55.37
2000;BME280;1001;48.87406500;9.59633600;2023-02-21T10:40:09;95477.63;;;12.48;53.99
2000;BME280;1001;48.87406500;9.59633600;2023-02-21T10:42:48;95467.69;;;12.50;54.28
2000;BME280;1001;48.87406500;9.59633600;2023-02-21T10:45:17;95476.84;;;12.36;54.70
2000;BME280;1001;48.87406500;9.59633600;2023-02-21T10:47:49;95477.50;;;12.55;54.54
2000;BME280;1001;48.87406500;9.59633600;2023-02-21T10:50:38;95475.03;;;12.37;53.72
2000;BME280;1001;48.87406500;9.59633600;2023-02-21T10:53:06;95476.00;;;12.59;53.95
2000;BME280;1001;48.87406500;9.59633600;2023-02-21T10:55:33;95470.25;;;12.73;55.18
2000;BME280;1001;48.87406500;9.59633600;2023-02-21T10:58:07;95466.19;;;13.06;53.99
2000;BME280;1001;48.87406500;9.59633600;2023-02-21T11:00:36;95469.00;;;13.04;55.05
2000;BME280;1001;48.87406500;9.59633600;2023-02-21T11:03:06;95477.16;;;13.31;54.39
2000;BME280;1001;48.87406500;9.59633600;2023-02-21T11:05:38;95468.63;;;13.24;52.25
2000;BME280;1001;48.87406500;9.59633600;2023-02-21T11:08:06;95456.84;;;13.26;51.14
2000;BME280;1001;48.87406500;9.59633600;2023-02-21T11:10:34;95458.22;;;13.45;52.59
2000;BME280;1001;48.87406500;9.59633600;2023-02-21T11:13:13;95463.41;;;13.40;52.75
2000;BME280;1001;48.87406500;9.59633600;2023-02-21T11:15:40;95457.44;;;13.61;52.41
2000;BME280;1001;48.87406500;9.59633600;2023-02-21T11:18:15;95452.34;;;13.72;51.96
2000;BME280;1001;48.87406500;9.59633600;2023-02-21T11:20:43;95453.78;;;13.46;50.67
2000;BME280;1001;48.87406500;9.59633600;2023-02-21T11:23:21;95442.16;;;13.58;51.87
2000;BME280;1001;48.87406500;9.59633600;2023-02-21T11:25:48;95439.69;;;13.52;51.23
2000;BME280;1001;48.87406500;9.59633600;2023-02-21T11:28:19;95442.31;;;13.69;50.10
2000;BME280;1001;48.87406500;9.59633600;2023-02-21T11:30:50;95439.59;;;13.80;51.33
2000;BME280;1001;48.87406500;9.59633600;2023-02-21T11:33:29;95430.66;;;13.98;50.64
2000;BME280;1001;48.87406500;9.59633600;2023-02-21T11:36:08;95426.44;;;13.97;50.00
2000;BME280;1001;48.87406500;9.59633600;2023-02-21T11:38:37;95427.22;;;14.14;50.29
2000;BME280;1001;48.87406500;9.59633600;2023-02-21T11:41:17;95416.38;;;14.10;50.19
2000;BME280;1001;48.87406500;9.59633600;2023-02-21T11:43:48;95412.16;;;14.09;50.69
2000;BME280;1001;48.87406500;9.59633600;2023-02-21T11:46:31;95413.25;;;14.13;50.41
2000;BME280;1001;48.87406500;9.59633600;2023-02-21T11:49:01;95397.78;;;13.95;49.23
2000;BME280;1001;48.87406500;9.59633600;2023-02-21T11:51:39;95404.97;;;14.21;51.17
2000;BME280;1001;48.87406500;9.59633600;2023-02-21T11:54:07;95402.00;;;14.18;49.80
2000;BME280;1001;48.87406500;9.59633600;2023-02-21T11:56:41;95401.50;;;14.38;49.83
2000;BME280;1001;48.87406500;9.59633600;2023-02-21T11:59:19;95391.88;;;14.26;50.28
2000;BME280;1001;48.87406500;9.59633600;2023-02-21T12:01:55;95385.72;;;14.38;49.99
2000;BME280;1001;48.87406500;9.59633600;2023-02-21T12:04:43;95377.84;;;14.21;51.19
2000;BME280;1001;48.87406500;9.59633600;2023-02-21T12:07:17;95376.03;;;14.21;50.31
2000;BME280;1001;48.87406500;9.59633600;2023-02-21T12:09:55;95373.88;;;14.18;50.43
2000;BME280;1001;48.87406500;9.59633600;2023-02-21T12:12:37;95367.94;;;14.28;50.69
2000;BME280;1001;48.87406500;9.59633600;2023-02-21T12:15:14;95363.50;;;14.28;52.04
2000;BME280;1001;48.87406500;9.59633600;2023-02-21T12:17:53;95359.16;;;14.39;51.58
2000;BME280;1001;48.87406500;9.59633600;2023-02-21T12:20:52;95360.63;;;14.30;51.74